ボードー の空港の天気 - METARとTAF

Bodo Vi ( ENBO / BOO ) - ノルウェー ヌールラン県ボードー
飛行場実況気象(Metar)
観測時間10/16 09:50 CEST (10/16 07:50 UTC)
風向・風速東 8m/s
視程10km以上
天気現象
なし
気温2℃
湿度69%
気圧1016hPa
METARENBO 160750Z 08015KT CAVOK 02/M03 Q1016 NOSIG
過去の天気等 Google飛行場航空写真 Wunderground天気予報

過去48時間のMETAR

飛行場予報(TAF)
発表時間: -
TAF ENBO 1606/1706 09015KT CAVOK